Time;durP1;ratioP1;P1;durP2;ratioP2;P2;SDS_P1;SDS_P2;PMS_P1;PMS_P2;Temp;Humidity;BMP_temperature;BMP_pressure;BME280_temperature;BME280_humidity;BME280_pressure;Samples;Min_cycle;Max_cycle;Signal;HPM_P1;HPM_P2
2023/03/20 00:00:46;;;;;;;9.95;5.30;;;7.70;99.90;;;;;;5074689;28;20072;-62
2023/03/20 00:03:12;;;;;;;12.30;4.95;;;7.30;99.90;;;;;;5073902;28;20044;-62
2023/03/20 00:05:38;;;;;;;11.07;5.22;;;6.70;99.90;;;;;;5074313;28;20423;-63
2023/03/20 00:08:04;;;;;;;10.38;4.57;;;6.70;99.90;;;;;;5075218;28;20047;-63
2023/03/20 00:10:41;;;;;;;11.38;5.25;;;6.50;99.90;;;;;;5074165;28;20531;-63
2023/03/20 00:13:13;;;;;;;14.55;5.13;;;8.20;99.90;;;;;;5074917;28;20539;-63
2023/03/20 00:15:42;;;;;;;7.82;5.22;;;6.60;99.90;;;;;;5074504;28;20129;-63
2023/03/20 00:18:18;;;;;;;11.98;5.05;;;7.00;99.90;;;;;;5074965;28;20113;-63
2023/03/20 00:20:49;;;;;;;10.35;5.03;;;6.80;99.90;;;;;;5075587;28;20051;-63
2023/03/20 00:23:15;;;;;;;8.70;4.88;;;6.80;99.90;;;;;;5074792;28;20054;-63
2023/03/20 00:25:42;;;;;;;11.88;5.75;;;7.00;99.90;;;;;;5075628;28;20437;-63
2023/03/20 00:28:37;;;;;;;9.05;5.30;;;6.60;99.90;;;;;;5075739;28;20048;-63
2023/03/20 00:31:05;;;;;;;11.30;6.00;;;6.70;99.90;;;;;;5075343;28;20380;-63
2023/03/20 00:33:31;;;;;;;8.82;5.32;;;6.70;99.90;;;;;;5075185;28;20466;-62
2023/03/20 00:35:57;;;;;;;11.00;5.40;;;7.40;99.90;;;;;;5076098;28;20093;-63
2023/03/20 00:38:24;;;;;;;10.52;5.05;;;7.50;99.90;;;;;;5074437;28;20115;-63
2023/03/20 00:40:50;;;;;;;11.45;5.78;;;6.80;99.90;;;;;;5074257;28;20051;-63
2023/03/20 00:43:16;;;;;;;12.48;5.85;;;8.00;99.90;;;;;;5073683;28;20629;-63
2023/03/20 00:45:45;;;;;;;11.55;6.07;;;6.70;99.90;;;;;;5074870;28;20055;-62
2023/03/20 00:48:15;;;;;;;12.10;5.80;;;7.10;99.90;;;;;;5088274;28;20119;-63
2023/03/20 00:50:41;;;;;;;8.75;4.93;;;8.40;99.90;;;;;;5074067;28;20036;-63
2023/03/20 00:53:10;;;;;;;10.45;4.88;;;6.50;99.90;;;;;;5073750;28;20040;-63
2023/03/20 00:55:37;;;;;;;10.50;5.38;;;6.90;99.90;;;;;;5073014;28;20298;-63
2023/03/20 00:58:04;;;;;;;14.05;6.13;;;6.60;99.90;;;;;;5074270;28;20051;-63
2023/03/20 01:00:41;;;;;;;12.50;5.75;;;8.20;99.90;;;;;;5075183;28;20040;-63
2023/03/20 01:03:14;;;;;;;13.82;5.97;;;6.60;99.90;;;;;;5073425;28;20058;-63
2023/03/20 01:05:40;;;;;;;9.35;5.28;;;6.70;99.90;;;;;;5073301;28;20055;-63
2023/03/20 01:08:18;;;;;;;12.35;5.72;;;8.70;99.90;;;;;;5073512;28;20048;-63
2023/03/20 01:10:45;;;;;;;13.95;6.35;;;6.70;99.90;;;;;;5073162;28;20048;-62
2023/03/20 01:13:24;;;;;;;14.32;6.22;;;7.10;99.90;;;;;;5073208;28;20050;-62
2023/03/20 01:15:51;;;;;;;16.08;7.25;;;6.80;99.90;;;;;;5071642;28;20097;-63
2023/03/20 01:18:20;;;;;;;14.57;6.28;;;6.60;99.90;;;;;;5072032;28;20075;-63
2023/03/20 01:20:47;;;;;;;15.70;5.97;;;6.70;99.90;;;;;;5073542;28;20193;-63
2023/03/20 01:23:13;;;;;;;11.48;6.63;;;6.70;99.90;;;;;;5074180;28;20131;-63
2023/03/20 01:25:40;;;;;;;17.25;7.75;;;7.30;99.90;;;;;;5073591;28;20036;-63
2023/03/20 01:28:23;;;;;;;14.88;7.45;;;6.70;99.90;;;;;;5073284;28;20055;-63
2023/03/20 01:30:49;;;;;;;19.83;8.68;;;6.70;99.90;;;;;;5073513;28;20523;-63
2023/03/20 01:33:18;;;;;;;19.50;7.80;;;7.20;99.90;;;;;;5073750;28;20247;-63
2023/03/20 01:35:45;;;;;;;18.23;7.18;;;6.80;99.90;;;;;;5074021;28;20491;-63
2023/03/20 01:38:23;;;;;;;14.93;8.00;;;7.90;99.90;;;;;;5073368;28;20032;-63
2023/03/20 01:41:06;;;;;;;14.35;7.43;;;6.70;99.90;;;;;;5073127;28;20184;-63
2023/03/20 01:43:33;;;;;;;17.48;7.70;;;6.80;99.90;;;;;;5073199;28;20043;-63
2023/03/20 01:46:24;;;;;;;17.33;8.07;;;6.90;99.90;;;;;;5072958;28;20298;-64
2023/03/20 01:48:49;;;;;;;21.65;8.38;;;6.80;99.90;;;;;;5072653;28;20105;-63
2023/03/20 01:51:31;;;;;;;15.85;8.20;;;6.80;99.90;;;;;;5071750;28;20051;-63
2023/03/20 01:54:00;;;;;;;20.25;8.45;;;6.70;99.90;;;;;;5072420;28;20218;-63
2023/03/20 01:56:29;;;;;;;15.98;9.80;;;6.70;99.90;;;;;;5071260;28;20040;-63
2023/03/20 01:58:59;;;;;;;18.88;8.50;;;6.70;99.90;;;;;;5073078;28;20040;-63
2023/03/20 02:01:26;;;;;;;26.48;9.10;;;6.70;99.90;;;;;;5072704;28;20047;-62
2023/03/20 02:03:53;;;;;;;30.70;11.40;;;6.70;99.90;;;;;;5070972;28;20043;-63
2023/03/20 02:06:22;;;;;;;24.85;8.43;;;6.80;99.90;;;;;;5072337;28;20032;-62
2023/03/20 02:08:50;;;;;;;23.00;9.18;;;6.80;99.90;;;;;;5072644;28;20044;-63
2023/03/20 02:11:18;;;;;;;21.80;8.70;;;6.80;99.90;;;;;;5072249;28;20126;-64
2023/03/20 02:13:46;;;;;;;21.30;9.07;;;7.30;99.90;;;;;;5071868;28;20048;-63
2023/03/20 02:16:14;;;;;;;18.48;8.68;;;6.90;99.90;;;;;;5070750;28;20044;-63
2023/03/20 02:18:43;;;;;;;19.35;8.18;;;7.90;99.90;;;;;;5072009;28;20162;-63
2023/03/20 02:21:40;;;;;;;19.27;7.85;;;6.90;99.90;;;;;;5072757;28;20057;-64
2023/03/20 02:24:36;;;;;;;18.13;8.48;;;6.90;99.90;;;;;;5072051;28;20477;-63
2023/03/20 02:27:10;;;;;;;24.35;9.98;;;6.90;99.90;;;;;;5071714;28;20071;-63
2023/03/20 02:29:42;;;;;;;23.00;8.27;;;6.90;99.90;;;;;;5073497;28;20460;-63
2023/03/20 02:32:10;;;;;;;24.08;8.18;;;8.70;99.90;;;;;;5072637;28;20048;-63
2023/03/20 02:35:22;;;;;;;21.52;8.25;;;6.90;99.90;;;;;;5071021;28;20087;-63
2023/03/20 02:38:04;;;;;;;17.65;8.07;;;6.90;99.90;;;;;;5072715;28;20044;-62
2023/03/20 02:40:43;;;;;;;19.48;8.85;;;7.20;99.90;;;;;;5071781;28;20046;-63
2023/03/20 02:43:36;;;;;;;18.80;7.70;;;7.00;99.90;;;;;;5071715;28;20074;-63
2023/03/20 02:46:18;;;;;;;21.10;7.75;;;7.10;99.90;;;;;;5073280;28;20079;-63
2023/03/20 02:48:57;;;;;;;21.55;8.30;;;8.00;99.90;;;;;;5071755;28;20113;-63
2023/03/20 02:51:51;;;;;;;19.83;7.80;;;7.00;99.90;;;;;;5073283;28;20135;-63
2023/03/20 02:54:32;;;;;;;20.90;9.18;;;6.90;99.90;;;;;;5073281;28;20088;-63
2023/03/20 02:57:19;;;;;;;20.80;8.32;;;6.90;99.90;;;;;;5072660;28;20048;-63
2023/03/20 03:00:08;;;;;;;17.65;7.57;;;7.00;99.90;;;;;;5073338;28;20571;-62
2023/03/20 03:02:42;;;;;;;18.20;9.20;;;7.10;99.90;;;;;;5072262;28;20492;-63
2023/03/20 03:05:15;;;;;;;16.83;8.73;;;7.90;99.90;;;;;;5071619;28;20128;-62
2023/03/20 03:07:45;;;;;;;20.15;8.77;;;7.00;99.90;;;;;;5072912;28;20093;-62
2023/03/20 03:10:16;;;;;;;25.10;9.18;;;7.00;99.90;;;;;;5072548;28;20044;-62
2023/03/20 03:12:45;;;;;;;21.63;9.43;;;7.00;99.90;;;;;;5071990;28;20063;-63
2023/03/20 03:15:26;;;;;;;22.77;9.52;;;7.00;99.90;;;;;;5071265;28;20071;-63
2023/03/20 03:17:54;;;;;;;21.98;9.93;;;7.00;99.90;;;;;;5070911;28;20336;-63
2023/03/20 03:20:24;;;;;;;20.73;9.40;;;7.00;99.90;;;;;;5071842;28;20076;-63
2023/03/20 03:22:50;;;;;;;20.17;8.95;;;7.00;99.90;;;;;;5072822;28;20048;-63
2023/03/20 03:25:16;;;;;;;16.85;8.70;;;7.10;99.90;;;;;;5071365;28;20097;-62
2023/03/20 03:27:48;;;;;;;20.88;10.55;;;7.10;99.90;;;;;;5070031;28;21195;-62
2023/03/20 03:30:16;;;;;;;16.00;8.30;;;8.30;99.90;;;;;;5072143;28;20044;-62
2023/03/20 03:33:17;;;;;;;23.08;9.80;;;7.10;99.90;;;;;;5072141;28;20044;-62
2023/03/20 03:35:44;;;;;;;17.17;8.93;;;7.20;99.90;;;;;;5062222;28;20051;-62
2023/03/20 03:38:48;;;;;;;20.42;9.43;;;8.20;99.90;;;;;;5071089;28;20055;-61
2023/03/20 03:41:28;;;;;;;20.90;9.05;;;7.10;99.90;;;;;;5071063;28;20056;-62
2023/03/20 03:43:59;;;;;;;17.73;8.45;;;7.10;99.90;;;;;;5071488;28;20152;-63
2023/03/20 03:46:34;;;;;;;27.35;9.85;;;7.10;99.90;;;;;;5071078;28;20040;-62
2023/03/20 03:49:01;;;;;;;18.98;8.30;;;7.10;99.90;;;;;;5070995;28;20405;-62
2023/03/20 03:51:30;;;;;;;13.40;7.97;;;7.00;99.90;;;;;;5071166;28;20032;-62
2023/03/20 03:54:15;;;;;;;15.50;7.82;;;7.10;99.90;;;;;;5071323;28;20684;-62
2023/03/20 03:56:44;;;;;;;13.98;8.02;;;7.00;99.90;;;;;;5072199;28;20070;-61
2023/03/20 03:59:20;;;;;;;16.10;8.18;;;7.50;99.90;;;;;;5073655;28;20036;-62
2023/03/20 04:01:46;;;;;;;18.27;7.88;;;8.00;99.90;;;;;;5076107;28;20063;-62
2023/03/20 04:04:14;;;;;;;17.10;7.82;;;8.30;99.90;;;;;;5075703;28;20048;-62
2023/03/20 04:06:41;;;;;;;16.48;7.60;;;8.60;99.90;;;;;;5075831;28;20044;-62
2023/03/20 04:09:07;;;;;;;18.77;7.88;;;7.20;99.90;;;;;;5075575;28;20119;-62
2023/03/20 04:11:34;;;;;;;15.43;7.50;;;7.10;99.90;;;;;;5076040;28;20048;-62
2023/03/20 04:14:00;;;;;;;15.75;7.60;;;7.10;99.90;;;;;;5074649;28;20040;-62
2023/03/20 04:16:26;;;;;;;16.58;7.53;;;8.40;99.90;;;;;;5076382;28;20105;-62
2023/03/20 04:18:52;;;;;;;16.83;7.25;;;7.80;99.90;;;;;;5073386;28;20451;-62
2023/03/20 04:21:18;;;;;;;14.80;7.35;;;7.10;99.90;;;;;;5075070;28;20043;-62
2023/03/20 04:23:44;;;;;;;17.00;8.45;;;7.40;99.90;;;;;;5075113;28;20075;-63
2023/03/20 04:26:10;;;;;;;12.98;7.95;;;8.90;99.90;;;;;;5075708;28;20147;-62
2023/03/20 04:28:36;;;;;;;16.08;8.93;;;7.10;99.90;;;;;;5075267;28;20055;-63
2023/03/20 04:31:02;;;;;;;15.88;8.65;;;9.20;99.90;;;;;;5075545;28;20135;-62
2023/03/20 04:33:28;;;;;;;14.07;8.73;;;7.20;99.90;;;;;;5074167;28;20342;-63
2023/03/20 04:35:55;;;;;;;16.92;9.57;;;7.10;99.90;;;;;;5073740;28;20055;-62
2023/03/20 04:38:22;;;;;;;18.77;9.05;;;7.10;99.90;;;;;;5075219;28;20065;-63
2023/03/20 04:40:48;;;;;;;16.92;9.07;;;7.10;99.90;;;;;;5075281;28;20194;-62
2023/03/20 04:43:14;;;;;;;16.45;9.23;;;7.10;99.90;;;;;;5073921;28;20032;-62
2023/03/20 04:45:40;;;;;;;15.48;9.00;;;7.00;99.90;;;;;;5073846;28;20036;-62
2023/03/20 04:48:07;;;;;;;15.07;8.43;;;7.10;99.90;;;;;;5074878;28;20036;-62
2023/03/20 04:50:32;;;;;;;20.17;8.80;;;7.20;99.90;;;;;;5074197;28;20218;-62
2023/03/20 04:52:58;;;;;;;19.95;7.95;;;7.10;99.90;;;;;;5074603;28;21255;-62
2023/03/20 04:55:24;;;;;;;20.17;9.52;;;7.20;99.90;;;;;;5072260;28;20999;-61
2023/03/20 04:57:50;;;;;;;17.30;9.77;;;7.10;99.90;;;;;;5074696;28;20524;-62
2023/03/20 05:00:16;;;;;;;16.77;9.60;;;7.10;99.90;;;;;;5074751;28;20461;-62
2023/03/20 05:02:42;;;;;;;18.50;10.02;;;7.10;99.90;;;;;;5074841;28;20920;-61
2023/03/20 05:05:08;;;;;;;23.02;9.15;;;9.20;99.90;;;;;;5074237;28;20044;-63
2023/03/20 05:07:34;;;;;;;20.88;11.27;;;7.00;99.90;;;;;;5074209;28;20072;-62
2023/03/20 05:10:00;;;;;;;17.17;10.18;;;7.80;99.90;;;;;;5072716;28;20086;-62
2023/03/20 05:12:26;;;;;;;21.95;10.35;;;7.00;99.90;;;;;;5072915;28;20063;-62
2023/03/20 05:14:53;;;;;;;19.33;10.65;;;7.00;99.90;;;;;;5073244;28;20071;-62
2023/03/20 05:17:20;;;;;;;20.45;10.32;;;7.00;99.90;;;;;;5074291;28;20036;-62
2023/03/20 05:19:46;;;;;;;20.13;10.13;;;7.50;99.90;;;;;;5074889;28;20196;-62
2023/03/20 05:22:12;;;;;;;18.50;10.45;;;7.20;99.90;;;;;;5074083;28;20043;-62
2023/03/20 05:24:38;;;;;;;22.38;11.48;;;7.10;99.90;;;;;;5074089;28;20031;-63
2023/03/20 05:27:04;;;;;;;21.40;10.60;;;7.00;99.90;;;;;;5075548;28;20378;-62
2023/03/20 05:29:30;;;;;;;21.17;9.77;;;7.00;99.90;;;;;;5076293;28;20032;-62
2023/03/20 05:31:56;;;;;;;17.15;9.80;;;7.00;99.90;;;;;;5075188;28;20587;-62
2023/03/20 05:34:21;;;;;;;16.88;9.75;;;7.10;99.90;;;;;;5071913;28;20040;-62
2023/03/20 05:36:47;;;;;;;21.15;9.57;;;7.00;99.90;;;;;;5075131;28;20047;-62
2023/03/20 05:39:13;;;;;;;17.63;9.20;;;7.00;99.90;;;;;;5074087;28;20051;-63
2023/03/20 05:41:39;;;;;;;18.60;9.80;;;7.00;99.90;;;;;;5074792;28;20044;-61
2023/03/20 05:44:04;;;;;;;20.33;8.48;;;7.10;99.90;;;;;;5072844;28;20052;-62
2023/03/20 05:46:30;;;;;;;19.58;9.18;;;7.00;99.90;;;;;;5074358;28;20088;-62
2023/03/20 05:48:56;;;;;;;21.85;10.13;;;8.60;99.90;;;;;;5072491;28;20138;-62
2023/03/20 05:51:22;;;;;;;14.23;8.77;;;6.80;99.90;;;;;;5072258;28;20048;-62
2023/03/20 05:53:47;;;;;;;18.33;9.32;;;6.20;99.90;;;;;;5071136;28;21028;-63
2023/03/20 05:56:13;;;;;;;17.45;8.52;;;6.90;99.90;;;;;;5073324;28;20044;-62
2023/03/20 05:58:39;;;;;;;17.10;9.38;;;7.10;99.90;;;;;;5072306;28;20093;-61
2023/03/20 06:01:05;;;;;;;17.65;10.07;;;7.00;99.90;;;;;;5073065;28;20341;-61
2023/03/20 06:03:31;;;;;;;21.90;9.02;;;7.10;99.90;;;;;;5074098;28;20465;-61
2023/03/20 06:05:56;;;;;;;19.08;9.75;;;7.00;99.90;;;;;;5072963;28;20131;-62
2023/03/20 06:08:22;;;;;;;18.10;9.30;;;7.00;99.90;;;;;;5071943;28;20399;-61
2023/03/20 06:10:51;;;;;;;15.68;9.68;;;7.10;99.90;;;;;;5072810;28;20105;-62
2023/03/20 06:13:17;;;;;;;16.15;9.30;;;7.10;99.90;;;;;;5072251;28;20047;-62
2023/03/20 06:15:43;;;;;;;18.45;9.85;;;7.00;99.90;;;;;;5072790;28;20043;-62
2023/03/20 06:18:09;;;;;;;19.63;9.65;;;7.00;99.90;;;;;;5071948;28;20241;-61
2023/03/20 06:20:34;;;;;;;19.58;10.10;;;7.40;99.90;;;;;;5088100;28;20044;-61
2023/03/20 06:23:00;;;;;;;14.65;8.68;;;7.10;99.90;;;;;;5073139;28;20032;-62
2023/03/20 06:25:26;;;;;;;17.08;9.27;;;7.00;99.90;;;;;;5071831;28;20032;-62
2023/03/20 06:27:52;;;;;;;18.38;9.70;;;7.20;99.90;;;;;;5070299;28;20499;-61
2023/03/20 06:30:18;;;;;;;17.65;10.40;;;8.60;99.90;;;;;;5072640;28;20089;-62
2023/03/20 06:32:44;;;;;;;18.83;9.77;;;7.10;99.90;;;;;;5072797;28;20172;-61
2023/03/20 06:35:11;;;;;;;21.30;11.25;;;7.60;99.90;;;;;;5070521;28;20044;-59
2023/03/20 06:37:37;;;;;;;18.77;9.75;;;7.30;99.90;;;;;;5071354;28;20492;-60
2023/03/20 06:40:04;;;;;;;18.23;10.27;;;7.50;99.90;;;;;;5072819;28;20119;-60
2023/03/20 06:42:30;;;;;;;20.98;10.30;;;7.30;99.90;;;;;;5074166;28;20038;-60
2023/03/20 06:44:56;;;;;;;17.90;10.25;;;7.30;99.90;;;;;;5072937;28;20040;-60
2023/03/20 06:47:22;;;;;;;19.25;10.15;;;7.40;99.90;;;;;;5073123;28;20040;-60
2023/03/20 06:49:48;;;;;;;18.55;10.57;;;7.30;99.90;;;;;;5072967;28;20040;-59
2023/03/20 06:52:20;;;;;;;16.73;10.05;;;9.10;99.90;;;;;;5072576;28;20039;-59
2023/03/20 06:54:46;;;;;;;17.83;10.38;;;7.40;99.90;;;;;;5074030;28;20094;-59
2023/03/20 06:57:12;;;;;;;20.02;10.82;;;7.50;99.90;;;;;;5072844;28;20501;-59
2023/03/20 06:59:37;;;;;;;22.55;10.07;;;7.50;99.90;;;;;;5073256;28;20731;-59
2023/03/20 07:02:04;;;;;;;17.17;10.60;;;7.40;99.90;;;;;;5074530;28;20044;-62
2023/03/20 07:04:30;;;;;;;16.67;9.80;;;9.30;99.90;;;;;;5072769;28;20083;-63
2023/03/20 07:06:57;;;;;;;17.77;10.68;;;7.60;99.90;;;;;;5087011;28;20040;-60
2023/03/20 07:09:23;;;;;;;23.38;11.20;;;7.50;99.90;;;;;;5070594;28;20188;-61
2023/03/20 07:11:48;;;;;;;19.00;10.98;;;7.60;99.90;;;;;;5073099;28;20187;-61
2023/03/20 07:14:15;;;;;;;17.88;10.73;;;7.60;99.90;;;;;;5072210;28;20044;-60
2023/03/20 07:16:41;;;;;;;17.92;10.15;;;7.70;99.90;;;;;;5070842;28;20036;-60
2023/03/20 07:19:06;;;;;;;19.80;9.98;;;7.10;99.90;;;;;;5071619;28;20063;-61
2023/03/20 07:21:33;;;;;;;19.98;10.18;;;8.00;99.90;;;;;;5073671;28;20077;-60
2023/03/20 07:24:00;;;;;;;21.55;11.20;;;9.30;99.90;;;;;;5072623;28;20044;-60
2023/03/20 07:26:25;;;;;;;20.58;10.50;;;8.10;99.90;;;;;;5072052;28;20131;-60
2023/03/20 07:28:52;;;;;;;14.82;9.80;;;8.20;99.90;;;;;;5072458;28;20048;-60
2023/03/20 07:31:23;;;;;;;20.08;10.60;;;8.20;99.90;;;;;;5073392;28;20400;-61
2023/03/20 07:33:48;;;;;;;20.15;10.85;;;8.40;99.90;;;;;;5073118;28;20044;-60
2023/03/20 07:36:15;;;;;;;16.80;10.82;;;9.20;99.90;;;;;;5076619;28;20536;-60
2023/03/20 07:38:40;;;;;;;20.80;10.38;;;8.40;99.90;;;;;;5075605;28;20377;-61
2023/03/20 07:41:06;;;;;;;19.38;11.13;;;8.20;99.90;;;;;;5075506;28;20116;-61
2023/03/20 07:43:32;;;;;;;22.17;11.02;;;8.20;99.90;;;;;;5076899;28;20130;-61
2023/03/20 07:46:02;;;;;;;18.77;11.02;;;8.70;99.90;;;;;;5075789;28;20089;-61
2023/03/20 07:48:27;;;;;;;21.05;11.38;;;8.30;99.90;;;;;;5074058;28;20051;-60
2023/03/20 07:50:53;;;;;;;18.35;10.70;;;8.30;99.90;;;;;;5073725;28;20032;-60
2023/03/20 07:53:19;;;;;;;21.40;9.82;;;9.00;99.90;;;;;;5074913;28;20454;-60
2023/03/20 07:55:45;;;;;;;20.45;11.00;;;8.20;99.90;;;;;;5076114;28;20044;-61
2023/03/20 07:58:11;;;;;;;20.52;11.07;;;8.20;99.90;;;;;;5075845;28;20524;-60
2023/03/20 08:00:36;;;;;;;20.48;11.10;;;8.30;99.90;;;;;;5077301;28;20670;-60
2023/03/20 08:03:03;;;;;;;21.90;10.70;;;8.10;99.90;;;;;;5077102;28;20380;-61
2023/03/20 08:05:28;;;;;;;19.15;10.95;;;8.40;99.90;;;;;;5075565;28;20036;-60
2023/03/20 08:07:54;;;;;;;18.77;10.77;;;8.30;99.90;;;;;;5076414;28;20076;-60
2023/03/20 08:10:20;;;;;;;20.50;10.38;;;8.60;99.90;;;;;;5076665;28;20190;-61
2023/03/20 08:12:46;;;;;;;24.17;11.93;;;9.40;99.90;;;;;;5076960;28;20045;-60
2023/03/20 08:15:12;;;;;;;21.85;11.85;;;8.80;99.90;;;;;;5073924;28;20216;-60
2023/03/20 08:17:40;;;;;;;20.92;11.48;;;8.60;99.90;;;;;;5075723;28;20799;-60
2023/03/20 08:20:06;;;;;;;21.75;11.38;;;8.60;99.90;;;;;;5074885;28;20168;-60
2023/03/20 08:22:32;;;;;;;18.77;11.13;;;8.70;99.90;;;;;;5076793;28;20080;-60
2023/03/20 08:24:58;;;;;;;19.58;10.68;;;8.60;99.90;;;;;;5076098;28;20516;-60
2023/03/20 08:27:23;;;;;;;18.98;10.30;;;8.70;99.90;;;;;;5075351;28;21086;-60
2023/03/20 08:29:49;;;;;;;21.45;10.95;;;8.70;99.90;;;;;;5075564;28;20287;-60
2023/03/20 08:32:15;;;;;;;19.00;10.80;;;8.60;99.90;;;;;;5075368;28;20052;-60
2023/03/20 08:34:41;;;;;;;20.42;11.02;;;6.70;99.90;;;;;;5074358;28;20665;-60
2023/03/20 08:37:07;;;;;;;17.60;10.90;;;8.50;99.90;;;;;;5074032;28;20714;-60
2023/03/20 08:39:32;;;;;;;20.02;9.98;;;8.60;99.90;;;;;;5075581;28;20040;-58
2023/03/20 08:41:58;;;;;;;17.33;9.85;;;8.50;99.90;;;;;;5074998;28;20496;-57
2023/03/20 08:44:25;;;;;;;18.92;10.77;;;8.60;99.90;;;;;;5074908;28;20040;-57
2023/03/20 08:46:52;;;;;;;22.25;11.65;;;8.70;99.90;;;;;;5075412;28;20279;-58
2023/03/20 08:49:18;;;;;;;15.50;9.43;;;8.70;99.90;;;;;;5074911;28;20387;-57
2023/03/20 08:51:44;;;;;;;16.55;10.30;;;8.90;99.90;;;;;;5075175;28;20031;-57
2023/03/20 08:54:10;;;;;;;19.45;10.52;;;8.80;99.90;;;;;;5074797;28;20054;-58
2023/03/20 08:56:36;;;;;;;19.13;10.23;;;8.80;99.90;;;;;;5075813;28;20044;-57
2023/03/20 08:59:02;;;;;;;17.95;9.73;;;8.90;99.90;;;;;;5075363;28;20044;-58
2023/03/20 09:01:28;;;;;;;24.92;11.38;;;9.00;99.90;;;;;;5076064;28;20097;-58
2023/03/20 09:03:54;;;;;;;16.88;10.18;;;9.00;99.90;;;;;;5075113;28;20040;-57
2023/03/20 09:06:20;;;;;;;16.80;9.50;;;9.20;99.90;;;;;;5074426;28;22198;-57
2023/03/20 09:08:46;;;;;;;19.67;9.73;;;9.20;99.90;;;;;;5075875;28;20048;-57
2023/03/20 09:11:11;;;;;;;23.95;10.50;;;9.10;99.90;;;;;;5074666;28;20286;-57
2023/03/20 09:13:37;;;;;;;21.13;9.60;;;9.30;99.90;;;;;;5073288;28;20048;-57
2023/03/20 09:16:03;;;;;;;20.48;9.50;;;9.30;99.90;;;;;;5075971;28;20126;-58
2023/03/20 09:18:29;;;;;;;18.15;9.32;;;9.30;99.90;;;;;;5074877;28;21074;-57
2023/03/20 09:20:55;;;;;;;16.35;9.32;;;9.30;99.90;;;;;;5076596;28;20063;-57
2023/03/20 09:23:21;;;;;;;16.98;9.20;;;9.20;99.90;;;;;;5075375;28;20232;-57
2023/03/20 09:25:47;;;;;;;17.90;9.82;;;9.30;99.90;;;;;;5075265;28;20052;-57
2023/03/20 09:28:14;;;;;;;21.58;9.63;;;9.40;99.90;;;;;;5074839;28;20105;-58
2023/03/20 09:30:42;;;;;;;19.48;9.90;;;9.40;99.90;;;;;;5075682;28;20048;-58
2023/03/20 09:33:08;;;;;;;20.83;9.85;;;9.70;99.90;;;;;;5075196;28;20119;-57
2023/03/20 09:35:33;;;;;;;19.17;8.82;;;9.60;99.90;;;;;;5057312;28;20050;-57
2023/03/20 09:37:59;;;;;;;16.40;8.75;;;9.40;99.90;;;;;;5074154;28;20385;-57
2023/03/20 09:40:36;;;;;;;21.58;9.00;;;9.60;99.90;;;;;;5074085;28;20472;-57
2023/03/20 09:43:29;;;;;;;18.77;8.70;;;9.70;99.90;;;;;;5073189;28;20218;-58
2023/03/20 09:46:16;;;;;;;20.42;8.68;;;10.00;99.90;;;;;;5069284;28;20062;-57
2023/03/20 09:49:07;;;;;;;20.92;8.95;;;10.00;99.90;;;;;;5073383;28;20043;-57
2023/03/20 09:51:43;;;;;;;17.95;8.48;;;10.30;99.90;;;;;;5073697;28;20500;-57
2023/03/20 09:54:32;;;;;;;14.93;8.00;;;10.30;99.90;;;;;;5072718;28;20043;-57
2023/03/20 09:57:14;;;;;;;15.68;7.80;;;10.30;99.90;;;;;;5073160;28;20056;-57
2023/03/20 09:59:40;;;;;;;19.33;8.63;;;10.40;99.90;;;;;;5073485;28;20058;-57
2023/03/20 10:02:15;;;;;;;18.33;8.15;;;10.30;99.90;;;;;;5074333;28;20135;-57
2023/03/20 10:04:42;;;;;;;19.20;7.97;;;10.40;99.90;;;;;;5073110;28;20090;-57
2023/03/20 10:07:13;;;;;;;16.63;8.40;;;10.60;99.90;;;;;;5072049;28;20039;-57
2023/03/20 10:09:39;;;;;;;16.55;7.47;;;10.50;99.90;;;;;;5072941;28;20051;-57
2023/03/20 10:12:19;;;;;;;24.48;8.57;;;10.60;99.90;;;;;;5073203;28;20040;-57
2023/03/20 10:15:09;;;;;;;15.93;8.13;;;10.40;99.90;;;;;;5073379;28;20207;-57
2023/03/20 10:17:53;;;;;;;16.70;6.78;;;11.80;99.90;;;;;;5073814;28;20135;-57
2023/03/20 10:20:30;;;;;;;19.90;8.68;;;10.30;99.90;;;;;;5071457;28;20091;-57
2023/03/20 10:23:23;;;;;;;17.80;8.23;;;10.20;99.90;;;;;;5073934;28;20105;-57
2023/03/20 10:25:53;;;;;;;17.83;7.85;;;10.30;99.90;;;;;;5073198;28;20036;-56
2023/03/20 10:28:32;;;;;;;20.35;8.38;;;10.20;99.90;;;;;;5073593;28;20039;-57
2023/03/20 10:31:28;;;;;;;16.20;7.72;;;10.10;99.90;;;;;;5074184;28;20040;-57
2023/03/20 10:34:02;;;;;;;20.63;7.90;;;10.40;99.90;;;;;;5074440;28;20169;-57
2023/03/20 10:36:42;;;;;;;23.38;8.52;;;10.50;99.90;;;;;;5073990;28;20056;-58
2023/03/20 10:39:17;;;;;;;19.05;7.43;;;10.70;99.90;;;;;;5072569;28;20048;-57
2023/03/20 10:41:59;;;;;;;17.17;7.22;;;10.60;99.90;;;;;;5073536;28;20127;-57
2023/03/20 10:44:39;;;;;;;16.77;7.38;;;10.80;99.90;;;;;;5072879;28;20408;-56
2023/03/20 10:47:08;;;;;;;20.17;6.93;;;10.60;99.90;;;;;;5072883;28;20122;-57
2023/03/20 10:49:40;;;;;;;16.08;7.10;;;10.40;99.90;;;;;;5071594;28;20032;-57
2023/03/20 10:52:16;;;;;;;15.13;7.38;;;10.40;99.90;;;;;;5072718;28;20461;-57
2023/03/20 10:54:51;;;;;;;16.70;6.82;;;10.10;99.90;;;;;;5072588;28;20346;-57
2023/03/20 10:57:23;;;;;;;17.92;7.25;;;10.00;99.90;;;;;;5071659;28;20036;-57
2023/03/20 10:59:51;;;;;;;16.90;7.13;;;10.00;99.90;;;;;;5071965;28;20468;-57
2023/03/20 11:02:20;;;;;;;16.55;6.97;;;10.00;99.90;;;;;;5073476;28;20043;-57
2023/03/20 11:04:46;;;;;;;20.27;7.25;;;10.00;99.90;;;;;;5072650;28;20119;-57
2023/03/20 11:07:35;;;;;;;16.48;6.85;;;10.00;99.90;;;;;;5071770;28;20526;-57
2023/03/20 11:10:04;;;;;;;15.65;7.13;;;10.00;99.90;;;;;;5075022;28;20359;-57
2023/03/20 11:12:41;;;;;;;16.05;7.10;;;9.70;99.90;;;;;;5076746;28;20040;-57
2023/03/20 11:15:24;;;;;;;16.83;7.68;;;10.00;99.90;;;;;;5077361;28;20077;-57
2023/03/20 11:17:59;;;;;;;17.23;6.63;;;10.00;99.90;;;;;;5075804;28;20409;-57
2023/03/20 11:20:26;;;;;;;15.50;6.82;;;10.00;99.90;;;;;;5077101;28;20765;-57
2023/03/20 11:22:58;;;;;;;17.55;6.50;;;10.10;99.90;;;;;;5076597;28;20063;-58
2023/03/20 11:25:45;;;;;;;13.57;6.57;;;10.00;99.90;;;;;;5076424;28;20044;-57
2023/03/20 11:28:30;;;;;;;12.52;6.20;;;10.20;99.90;;;;;;5075813;28;20048;-56
2023/03/20 11:31:09;;;;;;;17.17;6.43;;;10.20;99.90;;;;;;5076322;28;20138;-57
2023/03/20 11:33:41;;;;;;;10.82;5.35;;;10.20;99.90;;;;;;5076703;28;20163;-57
2023/03/20 11:36:21;;;;;;;;;;;10.00;99.90;;;;;;5076925;28;20043;-57
2023/03/20 11:38:49;;;;;;;17.52;6.13;;;10.10;99.90;;;;;;5076515;28;19930;-57
2023/03/20 11:41:27;;;;;;;10.60;4.32;;;9.90;99.90;;;;;;5076275;28;20054;-57
2023/03/20 11:43:53;;;;;;;12.18;4.63;;;9.80;99.90;;;;;;5077221;28;20086;-57
2023/03/20 11:46:21;;;;;;;11.98;4.68;;;9.60;99.90;;;;;;5076557;28;20490;-57
2023/03/20 11:49:01;;;;;;;10.68;3.75;;;9.60;99.90;;;;;;5075616;28;20055;-56
2023/03/20 11:51:27;;;;;;;11.90;4.70;;;9.70;99.90;;;;;;5077071;28;20478;-57
2023/03/20 11:54:00;;;;;;;10.65;3.72;;;9.60;99.90;;;;;;5076460;28;20122;-57
2023/03/20 11:56:28;;;;;;;7.85;3.55;;;9.80;99.90;;;;;;5076720;28;20044;-57
2023/03/20 11:59:08;;;;;;;11.88;4.20;;;9.70;99.90;;;;;;5074219;28;20075;-56
2023/03/20 12:01:51;;;;;;;9.70;3.90;;;9.80;99.90;;;;;;5077579;28;20048;-57
2023/03/20 12:04:40;;;;;;;11.10;4.30;;;9.70;99.90;;;;;;5075309;28;20040;-57
2023/03/20 12:07:17;;;;;;;13.82;4.70;;;9.50;99.90;;;;;;5075162;28;20040;-56
2023/03/20 12:10:09;;;;;;;12.15;5.00;;;9.40;99.90;;;;;;5075849;28;20047;-57
2023/03/20 12:12:47;;;;;;;12.88;6.60;;;9.10;99.90;;;;;;5074995;28;20742;-57
2023/03/20 12:15:26;;;;;;;14.35;5.97;;;9.30;99.90;;;;;;5072970;28;20047;-57
2023/03/20 12:17:58;;;;;;;18.88;6.22;;;9.10;99.90;;;;;;5074008;28;20313;-57
2023/03/20 12:20:32;;;;;;;12.80;6.30;;;9.20;99.90;;;;;;5072676;28;20044;-57
2023/03/20 12:23:07;;;;;;;14.73;6.78;;;9.10;99.90;;;;;;5073764;28;20040;-57
2023/03/20 12:25:43;;;;;;;15.57;6.32;;;9.20;99.90;;;;;;5073719;28;20118;-57
2023/03/20 12:28:30;;;;;;;16.55;6.60;;;10.90;99.90;;;;;;5074434;28;20314;-59
2023/03/20 12:31:23;;;;;;;18.10;7.97;;;8.80;99.90;;;;;;5075477;28;20058;-57
2023/03/20 12:34:35;;;;;;;14.60;7.10;;;9.10;99.90;;;;;;5074670;28;20119;-58
2023/03/20 12:37:01;;;;;;;13.57;6.90;;;8.90;99.90;;;;;;5073338;28;20088;-57
2023/03/20 12:39:40;;;;;;;14.18;7.55;;;8.70;99.90;;;;;;5073810;28;20143;-57
2023/03/20 12:42:34;;;;;;;16.08;8.18;;;8.80;99.90;;;;;;5075553;28;20723;-57
2023/03/20 12:45:08;;;;;;;13.43;7.70;;;8.60;99.90;;;;;;5074529;28;20055;-57
2023/03/20 12:47:56;;;;;;;19.20;8.98;;;8.60;99.90;;;;;;5074149;28;20523;-57
2023/03/20 12:50:35;;;;;;;19.30;8.82;;;8.60;99.90;;;;;;5073782;28;20060;-57
2023/03/20 12:53:06;;;;;;;16.27;8.60;;;8.50;99.90;;;;;;5073983;28;20512;-57
2023/03/20 12:55:50;;;;;;;18.23;8.93;;;8.60;99.90;;;;;;5075520;28;20055;-57
2023/03/20 12:58:47;;;;;;;16.73;10.07;;;8.50;99.90;;;;;;5073652;28;20040;-57
2023/03/20 13:01:35;;;;;;;16.25;9.90;;;8.70;99.90;;;;;;5075019;28;20044;-57
2023/03/20 13:04:29;;;;;;;16.35;9.63;;;8.50;99.90;;;;;;5089986;28;20052;-57